createdAt,value
2022-12-17T00:01:43.388Z,24.40
2022-12-17T00:04:29.053Z,23.35
2022-12-17T00:07:15.389Z,21.65
2022-12-17T00:10:00.708Z,22.85
2022-12-17T00:12:46.133Z,22.65
2022-12-17T00:15:31.366Z,21.55
2022-12-17T00:18:22.440Z,20.17
2022-12-17T00:21:12.088Z,22.40
2022-12-17T00:23:57.274Z,22.13
2022-12-17T00:26:43.104Z,22.83
2022-12-17T00:29:28.762Z,21.05
2022-12-17T00:32:16.131Z,22.25
2022-12-17T00:35:02.910Z,22.73
2022-12-17T00:37:48.510Z,23.15
2022-12-17T00:40:33.851Z,25.30
2022-12-17T00:43:19.736Z,25.60
2022-12-17T00:46:07.411Z,25.35
2022-12-17T00:48:52.532Z,24.60
2022-12-17T00:51:39.617Z,24.23
2022-12-17T00:54:24.869Z,25.80
2022-12-17T00:57:06.931Z,24.83
2022-12-17T00:59:53.219Z,25.33
2022-12-17T01:02:42.154Z,25.05
2022-12-17T01:05:28.033Z,24.13
2022-12-17T01:08:14.666Z,24.42
2022-12-17T01:11:00.617Z,23.25
2022-12-17T01:13:46.468Z,22.45
2022-12-17T01:16:33.878Z,22.83
2022-12-17T01:19:20.271Z,23.20
2022-12-17T01:22:17.035Z,20.75
2022-12-17T01:25:04.148Z,21.42
2022-12-17T01:27:49.639Z,19.92
2022-12-17T01:30:35.294Z,23.58
2022-12-17T01:33:22.152Z,20.90
2022-12-17T01:36:08.542Z,20.63
2022-12-17T01:38:53.998Z,22.65
2022-12-17T01:41:40.581Z,20.73
2022-12-17T01:45:03.951Z,19.45
2022-12-17T01:47:53.783Z,20.42
2022-12-17T01:50:43.726Z,18.63
2022-12-17T01:53:30.562Z,21.08
2022-12-17T01:56:17.381Z,23.15
2022-12-17T01:59:04.793Z,21.33
2022-12-17T02:01:49.348Z,21.50
2022-12-17T02:04:35.553Z,21.08
2022-12-17T02:07:45.017Z,21.25
2022-12-17T02:10:42.530Z,19.60
2022-12-17T02:13:34.614Z,20.67
2022-12-17T02:16:27.831Z,19.80
2022-12-17T02:19:18.161Z,21.08
2022-12-17T02:22:08.364Z,19.80
2022-12-17T02:25:02.609Z,18.42
2022-12-17T02:27:50.859Z,18.15
2022-12-17T02:30:37.825Z,17.00
2022-12-17T02:33:23.532Z,17.30
2022-12-17T02:36:13.769Z,18.90
2022-12-17T02:38:58.978Z,16.92
2022-12-17T02:41:48.653Z,18.40
2022-12-17T02:44:40.119Z,17.08
2022-12-17T02:47:28.664Z,17.13
2022-12-17T02:50:14.996Z,17.77
2022-12-17T02:53:07.867Z,17.27
2022-12-17T02:55:54.611Z,17.80
2022-12-17T02:58:39.979Z,18.10
2022-12-17T03:01:27.146Z,18.73
2022-12-17T03:04:13.195Z,16.98
2022-12-17T03:07:03.123Z,17.20
2022-12-17T03:09:48.381Z,16.83
2022-12-17T03:12:33.670Z,17.40
2022-12-17T03:15:19.117Z,18.02
2022-12-17T03:18:05.922Z,17.48
2022-12-17T03:20:51.566Z,16.08
2022-12-17T03:23:36.906Z,16.90
2022-12-17T03:26:23.182Z,17.75
2022-12-17T03:29:08.511Z,15.52
2022-12-17T03:31:53.975Z,15.43
2022-12-17T03:34:40.681Z,14.55
2022-12-17T03:37:26.314Z,15.93
2022-12-17T03:40:11.590Z,15.07
2022-12-17T03:42:56.717Z,15.70
2022-12-17T03:45:42.157Z,12.88
2022-12-17T03:48:30.431Z,12.75
2022-12-17T03:51:17.803Z,13.70
2022-12-17T03:54:03.698Z,14.18
2022-12-17T03:56:49.533Z,14.05
2022-12-17T03:59:35.204Z,13.82
2022-12-17T04:02:21.069Z,13.65
2022-12-17T04:05:06.605Z,15.88
2022-12-17T04:07:53.483Z,15.75
2022-12-17T04:10:38.734Z,14.48
2022-12-17T04:13:24.181Z,14.90
2022-12-17T04:16:24.058Z,16.65
2022-12-17T04:19:17.798Z,15.10
2022-12-17T04:22:03.038Z,15.63
2022-12-17T04:24:49.582Z,15.93
2022-12-17T04:27:34.771Z,15.80
2022-12-17T04:30:19.912Z,15.73
2022-12-17T04:33:05.193Z,14.98
2022-12-17T04:35:46.945Z,15.52
2022-12-17T04:38:32.399Z,16.10
2022-12-17T04:41:18.869Z,16.45
2022-12-17T04:44:04.189Z,16.40
2022-12-17T04:46:49.659Z,16.02
2022-12-17T04:49:34.931Z,16.25
2022-12-17T04:52:20.177Z,17.50
2022-12-17T04:55:05.400Z,15.63
2022-12-17T04:57:52.199Z,15.35
2022-12-17T05:00:37.985Z,15.20
2022-12-17T05:03:24.799Z,15.38
2022-12-17T05:06:10.042Z,15.38
2022-12-17T05:08:55.237Z,16.33
2022-12-17T05:11:41.393Z,13.90
2022-12-17T05:14:28.217Z,14.50
2022-12-17T05:17:13.927Z,15.63
2022-12-17T05:19:59.035Z,15.07
2022-12-17T05:22:44.326Z,14.10
2022-12-17T05:25:29.557Z,14.52
2022-12-17T05:28:15.074Z,13.23
2022-12-17T05:31:02.289Z,14.15
2022-12-17T05:33:47.633Z,13.90
2022-12-17T05:36:32.997Z,13.43
2022-12-17T05:39:18.427Z,13.10
2022-12-17T05:42:03.817Z,13.40
2022-12-17T05:44:48.985Z,13.50
2022-12-17T05:47:47.176Z,12.82
2022-12-17T05:50:32.487Z,13.02
2022-12-17T05:53:20.360Z,13.13
2022-12-17T05:56:13.561Z,14.05
2022-12-17T05:58:58.999Z,13.63
2022-12-17T06:01:44.375Z,15.05
2022-12-17T06:04:30.970Z,13.45
2022-12-17T06:07:16.199Z,13.32
2022-12-17T06:10:01.346Z,12.05
2022-12-17T06:12:46.471Z,12.95
2022-12-17T06:15:31.537Z,12.90
2022-12-17T06:18:17.429Z,12.55
2022-12-17T06:21:04.723Z,13.13
2022-12-17T06:23:50.308Z,12.30
2022-12-17T06:26:35.545Z,14.10
2022-12-17T06:29:20.981Z,14.32
2022-12-17T06:32:06.158Z,14.98
2022-12-17T06:34:51.675Z,15.18
2022-12-17T06:37:38.423Z,14.65
2022-12-17T06:40:39.439Z,15.32
2022-12-17T06:43:24.829Z,15.23
2022-12-17T06:46:10.710Z,15.20
2022-12-17T06:48:56.091Z,15.82
2022-12-17T06:51:41.406Z,13.88
2022-12-17T06:54:28.185Z,14.43
2022-12-17T06:57:13.408Z,13.95
2022-12-17T06:59:58.908Z,14.73
2022-12-17T07:02:49.620Z,14.95
2022-12-17T07:05:35.396Z,14.25
2022-12-17T07:08:20.690Z,16.25
2022-12-17T07:11:06.477Z,14.48
2022-12-17T07:13:51.843Z,14.20
2022-12-17T07:16:37.380Z,15.15
2022-12-17T07:19:26.998Z,15.48
2022-12-17T07:22:13.035Z,15.95
2022-12-17T07:24:58.368Z,15.20
2022-12-17T07:27:45.418Z,15.07
2022-12-17T07:30:31.283Z,16.10
2022-12-17T07:33:17.946Z,14.57
2022-12-17T07:36:11.545Z,14.90
2022-12-17T07:41:41.667Z,14.85
2022-12-17T07:44:28.678Z,14.57
2022-12-17T07:47:14.641Z,15.80
2022-12-17T07:49:59.787Z,15.52
2022-12-17T07:52:45.071Z,15.15
2022-12-17T07:55:30.513Z,15.52
2022-12-17T07:58:20.056Z,15.85
2022-12-17T08:01:07.228Z,14.57
2022-12-17T08:03:52.437Z,16.08
2022-12-17T08:06:58.408Z,18.05
2022-12-17T08:09:46.187Z,17.30
2022-12-17T08:12:31.626Z,15.65
2022-12-17T08:15:16.895Z,16.27
2022-12-17T08:18:03.427Z,16.70
2022-12-17T08:20:50.202Z,16.23
2022-12-17T08:23:35.914Z,16.80
2022-12-17T08:26:21.516Z,17.50
2022-12-17T08:29:06.938Z,17.38
2022-12-17T08:31:48.652Z,16.33
2022-12-17T08:34:35.384Z,16.52
2022-12-17T08:37:20.918Z,17.45
2022-12-17T08:40:06.398Z,17.70
2022-12-17T08:42:51.573Z,18.20
2022-12-17T08:45:36.953Z,17.35
2022-12-17T08:48:23.194Z,18.35
2022-12-17T08:51:10.216Z,19.65
2022-12-17T08:53:55.501Z,19.05
2022-12-17T08:56:40.909Z,18.90
2022-12-17T08:59:26.866Z,19.77
2022-12-17T09:02:12.556Z,18.05
2022-12-17T09:05:00.130Z,20.48
2022-12-17T09:07:46.935Z,18.17
2022-12-17T09:10:32.448Z,19.15
2022-12-17T09:13:20.673Z,19.05
2022-12-17T09:16:10.317Z,19.58
2022-12-17T09:18:56.198Z,20.85
2022-12-17T09:21:41.949Z,19.58
2022-12-17T09:24:29.546Z,20.75
2022-12-17T09:27:15.308Z,18.50
2022-12-17T09:30:00.915Z,21.70
2022-12-17T09:32:46.672Z,19.50
2022-12-17T09:35:28.489Z,21.83
2022-12-17T09:38:15.176Z,23.42
2022-12-17T09:41:09.758Z,21.50
2022-12-17T09:44:06.482Z,20.83
2022-12-17T09:46:58.392Z,20.20
2022-12-17T09:49:46.827Z,19.58
2022-12-17T09:52:38.527Z,21.33
2022-12-17T09:55:34.461Z,22.23
2022-12-17T09:58:33.745Z,20.48
2022-12-17T10:01:19.601Z,21.50
2022-12-17T10:04:06.192Z,22.05
2022-12-17T10:06:53.717Z,22.58
2022-12-17T10:09:39.563Z,22.73
2022-12-17T10:12:32.741Z,24.25
2022-12-17T10:15:19.482Z,22.65
2022-12-17T10:18:05.276Z,21.65
2022-12-17T10:20:55.204Z,20.50
2022-12-17T10:23:44.767Z,21.42
2022-12-17T10:26:35.499Z,21.05
2022-12-17T10:29:22.875Z,20.70
2022-12-17T10:32:14.937Z,20.77
2022-12-17T10:35:05.718Z,21.08
2022-12-17T10:37:54.054Z,21.27
2022-12-17T10:40:44.593Z,22.27
2022-12-17T10:43:45.197Z,20.52
2022-12-17T10:46:31.034Z,22.25
2022-12-17T10:49:28.715Z,21.52
2022-12-17T10:52:18.864Z,21.52
2022-12-17T10:55:15.547Z,22.42
2022-12-17T10:58:02.265Z,22.73
2022-12-17T11:00:50.777Z,22.05
2022-12-17T11:03:48.683Z,22.65
2022-12-17T11:06:42.819Z,22.05
2022-12-17T11:09:43.324Z,21.88
2022-12-17T11:12:31.306Z,23.55
2022-12-17T11:15:22.852Z,21.35
2022-12-17T11:18:11.759Z,20.92
2022-12-17T11:21:06.149Z,21.17
2022-12-17T11:23:56.118Z,21.30
2022-12-17T11:26:45.743Z,19.80
2022-12-17T11:29:32.499Z,21.83
2022-12-17T11:32:39.943Z,20.13
2022-12-17T11:35:35.726Z,19.13
2022-12-17T11:38:31.539Z,17.70
2022-12-17T11:41:40.101Z,18.42
2022-12-17T11:44:37.365Z,19.02
2022-12-17T11:47:33.256Z,21.83
2022-12-17T11:50:31.591Z,21.35
2022-12-17T11:53:28.231Z,21.27
2022-12-17T11:56:21.171Z,22.08
2022-12-17T11:59:11.321Z,18.80
2022-12-17T12:02:03.153Z,20.27
2022-12-17T12:04:58.785Z,19.83
2022-12-17T12:07:55.697Z,21.13
2022-12-17T12:10:46.850Z,20.48
2022-12-17T12:13:43.309Z,20.20
2022-12-17T12:16:38.065Z,18.63
2022-12-17T12:19:37.411Z,18.65
2022-12-17T12:22:30.897Z,19.27
2022-12-17T12:28:20.972Z,18.20
2022-12-17T12:31:14.350Z,16.60
2022-12-17T12:34:08.079Z,18.70
2022-12-17T12:36:56.259Z,17.58
2022-12-17T12:39:49.537Z,17.95
2022-12-17T12:42:41.401Z,16.65
2022-12-17T12:45:55.732Z,15.68
2022-12-17T12:48:56.700Z,16.45
2022-12-17T12:51:44.836Z,18.48
2022-12-17T12:54:46.032Z,16.83
2022-12-17T12:57:48.060Z,17.15
2022-12-17T13:00:42.523Z,17.50
2022-12-17T13:03:40.043Z,18.83
2022-12-17T13:06:09.706Z,17.13
2022-12-17T13:08:38.302Z,15.55
2022-12-17T13:11:30.318Z,15.38
2022-12-17T13:14:02.509Z,16.38
2022-12-17T13:16:50.052Z,16.77
2022-12-17T13:19:22.667Z,16.80
2022-12-17T13:21:51.930Z,17.95
2022-12-17T13:24:26.496Z,17.20
2022-12-17T13:26:54.735Z,17.27
2022-12-17T13:29:28.228Z,15.95
2022-12-17T13:32:04.745Z,17.38
2022-12-17T13:34:43.668Z,16.70
2022-12-17T13:37:21.823Z,16.48
2022-12-17T13:39:57.159Z,17.13
2022-12-17T13:42:29.807Z,16.20
2022-12-17T13:44:58.874Z,20.00
2022-12-17T13:47:28.816Z,19.70
2022-12-17T13:50:32.328Z,18.23
2022-12-17T13:52:48.600Z,18.30
2022-12-17T13:55:21.122Z,18.42
2022-12-17T13:57:50.238Z,18.42
2022-12-17T14:00:24.047Z,16.52
2022-12-17T14:02:52.448Z,17.17
2022-12-17T14:05:27.326Z,16.70
2022-12-17T14:07:59.733Z,17.13
2022-12-17T14:10:27.820Z,16.42
2022-12-17T14:13:05.655Z,17.00
2022-12-17T14:15:34.063Z,16.10
2022-12-17T14:18:03.211Z,18.38
2022-12-17T14:20:33.997Z,17.77
2022-12-17T14:23:06.152Z,19.15
2022-12-17T14:25:37.927Z,17.43
2022-12-17T14:28:07.845Z,15.90
2022-12-17T14:30:46.111Z,16.90
2022-12-17T14:35:58.456Z,17.05
2022-12-17T14:38:38.266Z,16.08
2022-12-17T14:41:25.750Z,17.98
2022-12-17T14:43:58.523Z,17.42
2022-12-17T14:46:26.752Z,17.20
2022-12-17T14:49:03.573Z,16.20
2022-12-17T14:51:34.498Z,17.15
2022-12-17T14:54:20.386Z,17.70
2022-12-17T14:56:49.996Z,16.88
2022-12-17T14:59:32.740Z,16.70
2022-12-17T15:02:03.997Z,18.92
2022-12-17T15:04:33.688Z,17.75
2022-12-17T15:07:01.607Z,17.15
2022-12-17T15:09:30.987Z,17.33
2022-12-17T15:11:58.940Z,18.85
2022-12-17T15:14:26.879Z,16.65
2022-12-17T15:16:55.943Z,18.42
2022-12-17T15:19:24.185Z,18.20
2022-12-17T15:21:52.199Z,17.55
2022-12-17T15:24:22.040Z,17.52
2022-12-17T15:26:51.400Z,16.77
2022-12-17T15:29:19.399Z,17.63
2022-12-17T15:31:47.489Z,17.42
2022-12-17T15:34:15.421Z,16.65
2022-12-17T15:36:43.302Z,16.83
2022-12-17T15:39:12.193Z,16.73
2022-12-17T15:41:57.773Z,17.60
2022-12-17T15:44:27.975Z,16.10
2022-12-17T15:46:55.998Z,16.48
2022-12-17T15:49:24.059Z,18.30
2022-12-17T15:51:52.059Z,18.58
2022-12-17T15:54:20.127Z,18.02
2022-12-17T15:56:54.545Z,19.42
2022-12-17T15:59:22.877Z,17.65
2022-12-17T16:01:52.275Z,18.58
2022-12-17T16:04:24.843Z,16.98
2022-12-17T16:09:24.500Z,16.98
2022-12-17T16:11:54.903Z,17.40
2022-12-17T16:14:23.211Z,17.30
2022-12-17T16:16:53.043Z,17.73
2022-12-17T16:19:20.978Z,17.70
2022-12-17T16:21:49.080Z,17.50
2022-12-17T16:24:17.078Z,16.58
2022-12-17T16:26:45.072Z,16.65
2022-12-17T16:29:12.945Z,17.15
2022-12-17T16:31:40.842Z,16.10
2022-12-17T16:34:10.802Z,16.77
2022-12-17T16:36:38.838Z,16.85
2022-12-17T16:39:07.169Z,17.92
2022-12-17T16:41:35.659Z,19.25
2022-12-17T16:44:04.340Z,16.85
2022-12-17T16:46:34.256Z,17.67
2022-12-17T16:49:06.505Z,17.70
2022-12-17T16:51:35.784Z,16.77
2022-12-17T16:54:06.338Z,17.42
2022-12-17T16:56:39.682Z,19.15
2022-12-17T16:59:09.574Z,18.58
2022-12-17T17:01:39.316Z,19.23
2022-12-17T17:04:09.405Z,19.88
2022-12-17T17:06:41.972Z,19.55
2022-12-17T17:09:10.310Z,25.38
2022-12-17T17:11:39.037Z,19.98
2022-12-17T17:14:08.244Z,21.70
2022-12-17T17:16:36.485Z,22.80
2022-12-17T17:19:05.694Z,20.02
2022-12-17T17:21:35.667Z,21.60
2022-12-17T17:24:08.091Z,21.10
2022-12-17T17:26:36.109Z,19.88
2022-12-17T17:29:05.081Z,21.02
2022-12-17T17:32:08.673Z,21.25
2022-12-17T17:34:21.203Z,19.73
2022-12-17T17:36:49.400Z,21.10
2022-12-17T17:39:18.606Z,19.77
2022-12-17T17:41:46.517Z,21.35
2022-12-17T17:44:15.426Z,21.92
2022-12-17T17:46:43.974Z,20.50
2022-12-17T17:49:12.613Z,20.92
2022-12-17T17:54:32.586Z,19.77
2022-12-17T17:57:00.545Z,19.23
2022-12-17T17:59:33.355Z,18.75
2022-12-17T18:02:02.491Z,18.65
2022-12-17T18:04:30.979Z,18.95
2022-12-17T18:09:48.194Z,19.77
2022-12-17T18:12:33.751Z,19.98
2022-12-17T18:15:18.375Z,18.40
2022-12-17T18:17:48.329Z,17.58
2022-12-17T18:20:16.367Z,18.10
2022-12-17T18:22:46.097Z,17.83
2022-12-17T18:25:16.561Z,17.52
2022-12-17T18:27:44.525Z,17.50
2022-12-17T18:30:13.435Z,16.80
2022-12-17T18:32:42.344Z,17.67
2022-12-17T18:35:10.659Z,18.40
2022-12-17T18:37:39.029Z,18.50
2022-12-17T18:40:08.272Z,17.30
2022-12-17T18:42:55.064Z,16.25
2022-12-17T18:45:23.206Z,17.75
2022-12-17T18:47:51.995Z,16.77
2022-12-17T18:50:20.096Z,18.50
2022-12-17T18:52:47.957Z,17.17
2022-12-17T18:55:16.343Z,18.40
2022-12-17T18:57:45.607Z,16.67
2022-12-17T19:00:14.894Z,16.95
2022-12-17T19:02:42.906Z,15.85
2022-12-17T19:05:10.956Z,16.52
2022-12-17T19:07:38.777Z,15.63
2022-12-17T19:10:07.701Z,15.50
2022-12-17T19:12:35.853Z,14.25
2022-12-17T19:15:05.758Z,15.38
2022-12-17T19:17:34.507Z,14.60
2022-12-17T19:20:02.477Z,15.45
2022-12-17T19:22:30.446Z,15.63
2022-12-17T19:24:58.325Z,15.52
2022-12-17T19:27:26.327Z,15.07
2022-12-17T19:29:56.432Z,16.13
2022-12-17T19:32:25.812Z,14.00
2022-12-17T19:34:53.822Z,14.80
2022-12-17T19:37:21.669Z,14.25
2022-12-17T19:39:49.524Z,14.35
2022-12-17T19:42:25.459Z,12.80
2022-12-17T19:44:54.028Z,15.50
2022-12-17T19:47:22.958Z,14.00
2022-12-17T19:49:52.501Z,14.80
2022-12-17T19:52:20.351Z,14.90
2022-12-17T19:54:49.970Z,15.95
2022-12-17T19:57:17.898Z,15.43
2022-12-17T19:59:45.943Z,15.45
2022-12-17T20:02:15.670Z,15.13
2022-12-17T20:04:43.786Z,15.02
2022-12-17T20:07:12.977Z,17.23
2022-12-17T20:09:44.099Z,16.15
2022-12-17T20:12:12.517Z,15.70
2022-12-17T20:14:40.459Z,15.93
2022-12-17T20:17:08.512Z,16.15
2022-12-17T20:19:36.609Z,15.43
2022-12-17T20:22:06.944Z,15.30
2022-12-17T20:24:37.352Z,13.30
2022-12-17T20:27:05.850Z,16.02
2022-12-17T20:29:33.820Z,15.32
2022-12-17T20:32:03.158Z,15.93
2022-12-17T20:34:31.093Z,16.48
2022-12-17T20:36:58.993Z,15.70
2022-12-17T20:39:28.215Z,16.23
2022-12-17T20:41:58.146Z,14.93
2022-12-17T20:44:26.241Z,16.00
2022-12-17T20:46:54.207Z,13.45
2022-12-17T20:49:24.850Z,15.23
2022-12-17T20:51:52.794Z,14.52
2022-12-17T20:54:21.616Z,14.68
2022-12-17T20:56:49.943Z,15.13
2022-12-17T20:59:20.785Z,14.48
2022-12-17T21:01:55.594Z,16.48
2022-12-17T21:04:24.351Z,15.32
2022-12-17T21:06:52.969Z,15.63
2022-12-17T21:09:22.567Z,15.05
2022-12-17T21:11:50.847Z,13.48
2022-12-17T21:14:20.874Z,14.40
2022-12-17T21:16:49.383Z,14.55
2022-12-17T21:19:20.127Z,15.45
2022-12-17T21:21:48.379Z,15.35
2022-12-17T21:24:16.227Z,15.63
2022-12-17T21:26:45.324Z,15.50
2022-12-17T21:29:14.415Z,13.85
2022-12-17T21:31:46.558Z,15.82
2022-12-17T21:34:17.321Z,15.40
2022-12-17T21:36:46.956Z,14.43
2022-12-17T21:39:16.774Z,14.68
2022-12-17T21:42:06.906Z,13.60
2022-12-17T21:44:35.158Z,14.60
2022-12-17T21:47:04.631Z,13.05
2022-12-17T21:49:32.581Z,15.63
2022-12-17T21:52:01.918Z,14.48
2022-12-17T21:54:29.991Z,14.30
2022-12-17T21:56:57.897Z,14.80
2022-12-17T21:59:25.767Z,15.57
2022-12-17T22:01:57.323Z,14.88
2022-12-17T22:04:27.423Z,14.55
2022-12-17T22:06:59.111Z,14.80
2022-12-17T22:09:49.238Z,14.50
2022-12-17T22:12:40.542Z,14.68
2022-12-17T22:15:11.046Z,14.48
2022-12-17T22:17:41.413Z,15.18
2022-12-17T22:20:11.873Z,15.50
2022-12-17T22:22:39.741Z,14.63
2022-12-17T22:25:10.842Z,14.73
2022-12-17T22:27:40.059Z,14.82
2022-12-17T22:30:30.355Z,15.27
2022-12-17T22:33:02.232Z,15.00
2022-12-17T22:37:45.424Z,14.27
2022-12-17T22:41:06.282Z,13.95
2022-12-17T22:44:36.378Z,14.27
2022-12-17T22:44:42.605Z,14.52
2022-12-17T22:47:09.664Z,15.02
2022-12-17T22:49:39.205Z,13.95
2022-12-17T22:52:08.626Z,14.88
2022-12-17T22:54:36.741Z,13.43
2022-12-17T22:57:35.813Z,14.73
2022-12-17T22:59:52.954Z,14.60
2022-12-17T23:02:20.870Z,14.07
2022-12-17T23:04:48.930Z,14.48
2022-12-17T23:07:18.162Z,13.52
2022-12-17T23:09:46.058Z,13.30
2022-12-17T23:12:36.800Z,14.48
2022-12-17T23:15:07.746Z,14.33
2022-12-17T23:17:35.647Z,15.02
2022-12-17T23:20:03.594Z,14.35
2022-12-17T23:22:34.377Z,14.55
2022-12-17T23:25:02.318Z,14.80
2022-12-17T23:27:30.382Z,14.40
2022-12-17T23:29:58.845Z,15.38
2022-12-17T23:32:27.330Z,15.77
2022-12-17T23:34:55.220Z,14.30
2022-12-17T23:37:23.117Z,13.73
2022-12-17T23:39:52.372Z,14.20
2022-12-17T23:42:20.236Z,13.35
2022-12-17T23:44:48.092Z,13.65
2022-12-17T23:47:16.029Z,14.15
2022-12-17T23:49:43.947Z,14.82
2022-12-17T23:52:11.876Z,14.88
2022-12-17T23:54:39.701Z,12.85
2022-12-17T23:57:09.218Z,13.10
2022-12-17T23:59:37.093Z,15.07
